Detall de PIREP

Printer-friendly versionPDF version

[2009/04/29 12:23:00]
Flight IATA:CT1022
Pilot Number:016
Company ICAO:CAT
Aircraft Type:B744/E
PAX:0
Departing Airport: LPAZ
Destination Airport: LEBL
Alternate Airport:LEPA
Online: VATSIM
Route:DOKAS 3820N KOMUT UZ20 BUSEN UN870 PONEN UW800 CASPE
Flight Level:FL370
No Slew and time accel
No pause
Crash detect
Detect pilot in Cockpit between each 30 and 45 minutes
12:23 Zero fuel Weight: 466688 Lbs, Fuel Weight: 255082 Lbs
12:23 VATSIM:LPAZ 291900Z 29009KT 9999 SCT017 17/14 Q1022
12:23 VATSIM:LEBL 291900Z 13004KT 080V170 9999 FEW025 16/10 Q1017 NOSIG
12:24 Parking Brakes off
12:28 Take-off
12:28 Take off Weight: 718877 Lbs
12:28 Wind: 302 @ 009 Knots Heading: 349
12:28 POS N36 58 49 W025 10 20
12:28 Gear Up: 191 Knots
12:28 Flaps:3 at 192 Knots
12:29 Flaps:2 at 224 Knots
12:29 Flaps:1 at 245 Knots
12:31 Flaps:0 at 259 Knots
12:43 Wind:292@043 Knots
Heading: 055 Ground Speed: 464 Knots Altitude 22417 ft
12:58 Wind:296@036 Knots Heading: 087 Ground Speed: 554 Knots Altitude 28264 ft
13:13 Wind:307@019 Knots Heading: 088 Ground Speed: 515 Knots Altitude 28267 ft
13:28 Wind:277@011 Knots Heading: 090 Ground Speed: 486 Knots Altitude 28254 ft
13:43 Wind:265@016 Knots Heading: 081 Ground Speed: 492 Knots Altitude 28241 ft
13:58 Wind:272@019 Knots Heading: 083 Ground Speed: 494 Knots Altitude 28248 ft
14:13 Wind:275@007 Knots Heading: 067 Ground Speed: 482 Knots Altitude 28231 ft
14:28 Wind:252@031 Knots Heading: 067 Ground Speed: 508 Knots Altitude 28159 ft
14:43 Wind:235@027 Knots Heading: 076 Ground Speed: 503 Knots Altitude 28038 ft
14:58 Wind:325@006 Knots Heading: 094 Ground Speed: 422 Knots Altitude 25062 ft
15:08 Flaps:1 at 248 Knots
15:13 Wind:125@008 Knots Heading: 068 Ground Speed: 252
Knots Altitude 6381 ft
15:13 Flaps:2 at 236 Knots
15:13 Flaps:3 at 217 Knots
15:15 Flaps:4 at 179 Knots
15:16 Flaps:5 at 177 Knots
15:16 Flaps:4 at 179 Knots
15:17 Gear Down: 179 Knots
15:17 Flaps:5 at 172 Knots
15:18 Flaps:6 at 160 Knots
15:21 TouchDown:Rate -263 ft/min Speed: 143 Knots
15:21 VATSIM:LEBL 292200Z 07006KT 9999 FEW018 SCT028 15/11 Q1018 NOSIG
15:21 Land
15:21 Wind:069@006 Knots
15:21 Heading: 245
15:21 Flight Duration: 02:53
15:21 Landing Weight: 640428 Lbs
15:21 POS N41 17 56 E002 05 04
15:23 Parking brakes on
15:23 Block to Block Duration: 02:59
15:23 Final Fuel: 172947 Lbls
15:23 Spent Fuel: 82134 Lbls
15:23 Flight Length: 1326 NM
15:23 TOD Land Length: 1326 NM

Exportar CSV

Powered by Drupal - Modified by Danger4k